Time;durP1;ratioP1;P1;durP2;ratioP2;P2;SDS_P1;SDS_P2;PMS_P1;PMS_P2;Temp;Humidity;BMP_temperature;BMP_pressure;BME280_temperature;BME280_humidity;BME280_pressure;Samples;Min_cycle;Max_cycle;Signal;HPM_P1;HPM_P2
2023/12/28 00:01:38;;;;;;;2.95;1.95;;;;;;;;;;5113398;28;20391;-59
2023/12/28 00:04:03;;;;;;;5.30;2.60;;;;;;;;;;5112914;28;20045;-58
2023/12/28 00:06:28;;;;;;;3.47;2.10;;;;;;;;;;5113928;28;20031;-58
2023/12/28 00:08:54;;;;;;;5.03;2.45;;;;;;;;;;5113160;28;20039;-59
2023/12/28 00:11:20;;;;;;;2.50;1.77;;;;;;;;;;5112584;28;20019;-58
2023/12/28 00:13:46;;;;;;;3.75;2.20;;;;;;;;;;5111996;28;20138;-58
2023/12/28 00:16:11;;;;;;;5.60;2.50;;;;;;;;;;5111187;28;20170;-58
2023/12/28 00:18:36;;;;;;;4.85;2.47;;;;;;;;;;5111603;28;20045;-59
2023/12/28 00:21:02;;;;;;;5.38;2.50;;;;;;;;;;5111620;28;20523;-58
2023/12/28 00:23:27;;;;;;;5.95;2.35;;;;;;;;;;5113412;28;20072;-58
2023/12/28 00:25:52;;;;;;;8.82;2.80;;;;;;;;;;5113211;28;20028;-58
2023/12/28 00:28:19;;;;;;;5.53;2.60;;;;;;;;;;5094377;28;20067;-59
2023/12/28 00:30:44;;;;;;;3.92;2.47;;;;;;;;;;5112254;28;20055;-56
2023/12/28 00:33:10;;;;;;;6.97;3.03;;;;;;;;;;5112508;28;20028;-58
2023/12/28 00:35:35;;;;;;;4.25;2.40;;;;;;;;;;5113001;28;20038;-58
2023/12/28 00:38:00;;;;;;;4.95;2.80;;;;;;;;;;5112231;28;20432;-59
2023/12/28 00:40:26;;;;;;;7.55;2.78;;;;;;;;;;5112356;28;20032;-58
2023/12/28 00:42:51;;;;;;;5.53;2.42;;;;;;;;;;5113112;28;20028;-57
2023/12/28 00:45:16;;;;;;;4.18;2.67;;;;;;;;;;5112283;28;20038;-56
2023/12/28 00:47:45;;;;;;;4.10;2.60;;;;;;;;;;5103093;28;20093;-58
2023/12/28 00:50:14;;;;;;;4.97;2.60;;;;;;;;;;5092201;28;20084;-53
2023/12/28 00:52:40;;;;;;;3.58;2.35;;;;;;;;;;5092635;28;20067;-54
2023/12/28 00:55:07;;;;;;;5.25;3.00;;;;;;;;;;5096791;28;20055;-56
2023/12/28 00:57:33;;;;;;;3.88;2.28;;;;;;;;;;5112971;28;20089;-55
2023/12/28 00:59:58;;;;;;;5.15;2.50;;;;;;;;;;5105504;28;20028;-57
2023/12/28 01:02:24;;;;;;;4.93;2.38;;;;;;;;;;5109839;28;20076;-56
2023/12/28 01:04:49;;;;;;;4.43;2.35;;;;;;;;;;5112699;28;20077;-58
2023/12/28 01:07:14;;;;;;;5.65;2.58;;;;;;;;;;5112235;28;20040;-58
2023/12/28 01:09:40;;;;;;;4.88;2.63;;;;;;;;;;5112536;28;20028;-56
2023/12/28 01:12:06;;;;;;;4.53;2.50;;;;;;;;;;5110135;28;20032;-58
2023/12/28 01:14:31;;;;;;;6.03;2.40;;;;;;;;;;5110766;28;20040;-57
2023/12/28 01:16:57;;;;;;;4.78;2.25;;;;;;;;;;5112163;28;20038;-58
2023/12/28 01:19:23;;;;;;;3.72;2.22;;;;;;;;;;5106301;28;20135;-57
2023/12/28 01:21:49;;;;;;;3.90;2.17;;;;;;;;;;5110735;28;20048;-58
2023/12/28 01:24:15;;;;;;;3.83;2.08;;;;;;;;;;5111629;28;20040;-57
2023/12/28 01:26:40;;;;;;;5.45;2.05;;;;;;;;;;5110929;28;20030;-57
2023/12/28 01:29:05;;;;;;;3.65;2.20;;;;;;;;;;5109294;28;20115;-58
2023/12/28 01:31:31;;;;;;;5.15;2.28;;;;;;;;;;5107962;28;20353;-58
2023/12/28 01:33:56;;;;;;;3.60;2.20;;;;;;;;;;5110865;28;20031;-58
2023/12/28 01:36:22;;;;;;;3.47;2.08;;;;;;;;;;5102455;28;20652;-59
2023/12/28 01:38:48;;;;;;;4.05;2.40;;;;;;;;;;5110251;28;20130;-60
2023/12/28 01:41:15;;;;;;;3.28;1.90;;;;;;;;;;5109682;28;20032;-61
2023/12/28 01:43:43;;;;;;;5.57;2.20;;;;;;;;;;5110804;28;20127;-61
2023/12/28 01:46:13;;;;;;;4.03;2.28;;;;;;;;;;5109947;28;20038;-61
2023/12/28 01:48:39;;;;;;;5.63;1.77;;;;;;;;;;5111768;28;20488;-61
2023/12/28 01:51:05;;;;;;;4.07;2.35;;;;;;;;;;5104639;28;20051;-60
2023/12/28 01:53:30;;;;;;;4.35;1.92;;;;;;;;;;5110721;28;20035;-60
2023/12/28 01:55:56;;;;;;;3.78;2.20;;;;;;;;;;5112121;28;20054;-60
2023/12/28 01:58:22;;;;;;;3.30;2.13;;;;;;;;;;5108271;28;20194;-60
2023/12/28 02:00:48;;;;;;;4.80;2.20;;;;;;;;;;5110330;28;20414;-60
2023/12/28 02:03:14;;;;;;;2.40;1.60;;;;;;;;;;5107685;28;20024;-60
2023/12/28 02:05:39;;;;;;;6.05;2.10;;;;;;;;;;5110289;28;20030;-60
2023/12/28 02:08:05;;;;;;;4.60;2.22;;;;;;;;;;5108283;28;20401;-60
2023/12/28 02:10:30;;;;;;;3.80;2.20;;;;;;;;;;5108423;28;20034;-60
2023/12/28 02:12:56;;;;;;;4.78;2.25;;;;;;;;;;5110129;28;20126;-60
2023/12/28 02:15:22;;;;;;;3.33;2.05;;;;;;;;;;5109536;28;20034;-60
2023/12/28 02:17:58;;;;;;;3.30;2.10;;;;;;;;;;5101663;28;20066;-60
2023/12/28 02:20:25;;;;;;;2.85;1.98;;;;;;;;;;5108836;28;20313;-60
2023/12/28 02:22:51;;;;;;;5.93;2.42;;;;;;;;;;5109832;28;20072;-60
2023/12/28 02:25:16;;;;;;;3.13;2.08;;;;;;;;;;5090737;28;20104;-60
2023/12/28 02:27:46;;;;;;;6.10;2.40;;;;;;;;;;5108753;28;20074;-60
2023/12/28 02:30:14;;;;;;;4.13;2.30;;;;;;;;;;5109102;28;20162;-60
2023/12/28 02:33:10;;;;;;;4.90;2.35;;;;;;;;;;5108319;28;20035;-60
2023/12/28 02:35:44;;;;;;;4.35;2.15;;;;;;;;;;5111223;28;20038;-60
2023/12/28 02:38:10;;;;;;;3.55;2.10;;;;;;;;;;5109606;28;20529;-60
2023/12/28 02:40:40;;;;;;;3.72;2.10;;;;;;;;;;5107877;28;20387;-60
2023/12/28 02:43:06;;;;;;;3.40;2.30;;;;;;;;;;5109946;28;20464;-60
2023/12/28 02:45:32;;;;;;;3.85;2.30;;;;;;;;;;5081478;28;20420;-60
2023/12/28 02:47:57;;;;;;;4.50;2.50;;;;;;;;;;5104633;28;20101;-60
2023/12/28 02:50:23;;;;;;;3.88;2.25;;;;;;;;;;5112522;28;20039;-60
2023/12/28 02:52:48;;;;;;;4.53;2.40;;;;;;;;;;5112552;28;20032;-60
2023/12/28 02:55:14;;;;;;;3.30;2.20;;;;;;;;;;5110738;28;20035;-60
2023/12/28 02:57:40;;;;;;;3.47;1.92;;;;;;;;;;5113776;28;20059;-60
2023/12/28 03:00:08;;;;;;;3.92;2.33;;;;;;;;;;5113777;28;20035;-60
2023/12/28 03:02:34;;;;;;;3.17;1.95;;;;;;;;;;5112657;28;20024;-60
2023/12/28 03:04:59;;;;;;;5.15;2.30;;;;;;;;;;5113726;28;20031;-60
2023/12/28 03:07:24;;;;;;;5.07;2.50;;;;;;;;;;5114249;28;20031;-60
2023/12/28 03:09:50;;;;;;;4.57;2.15;;;;;;;;;;5114771;28;20035;-60
2023/12/28 03:12:16;;;;;;;3.72;2.20;;;;;;;;;;5113717;28;20031;-60
2023/12/28 03:14:41;;;;;;;5.05;2.58;;;;;;;;;;5109746;28;20035;-60
2023/12/28 03:17:07;;;;;;;4.13;2.30;;;;;;;;;;5094377;28;20036;-60
2023/12/28 03:19:32;;;;;;;4.60;2.30;;;;;;;;;;5093435;28;20452;-60
2023/12/28 03:21:57;;;;;;;7.22;2.42;;;;;;;;;;5093971;28;20048;-60
2023/12/28 03:24:23;;;;;;;4.10;2.13;;;;;;;;;;5095294;28;20038;-60
2023/12/28 03:26:48;;;;;;;3.70;2.20;;;;;;;;;;5094285;28;20357;-60
2023/12/28 03:29:13;;;;;;;3.72;2.10;;;;;;;;;;5107728;28;20034;-60
2023/12/28 03:31:40;;;;;;;3.75;2.20;;;;;;;;;;5114116;28;20463;-60
2023/12/28 03:34:06;;;;;;;4.97;2.35;;;;;;;;;;5114282;28;20395;-60
2023/12/28 03:36:32;;;;;;;4.10;2.35;;;;;;;;;;5113190;28;20027;-60
2023/12/28 03:38:57;;;;;;;5.28;2.28;;;;;;;;;;5112888;28;20111;-59
2023/12/28 03:41:22;;;;;;;4.95;2.50;;;;;;;;;;5109443;28;20034;-61
2023/12/28 03:43:48;;;;;;;4.60;2.42;;;;;;;;;;5112670;28;20027;-60
2023/12/28 03:46:13;;;;;;;3.20;1.85;;;;;;;;;;5111707;28;20032;-60
2023/12/28 03:48:39;;;;;;;5.38;2.30;;;;;;;;;;5110113;28;20740;-61
2023/12/28 03:51:04;;;;;;;3.70;2.15;;;;;;;;;;5113778;28;20520;-60
2023/12/28 03:53:33;;;;;;;3.13;1.90;;;;;;;;;;5111703;28;20710;-60
2023/12/28 03:55:59;;;;;;;4.13;2.30;;;;;;;;;;5109619;28;20093;-60
2023/12/28 03:58:24;;;;;;;4.50;2.42;;;;;;;;;;5111859;28;20453;-60
2023/12/28 04:00:49;;;;;;;4.38;2.20;;;;;;;;;;5111621;28;20539;-60
2023/12/28 04:03:15;;;;;;;4.55;2.70;;;;;;;;;;5110122;28;20032;-60
2023/12/28 04:05:40;;;;;;;5.15;2.30;;;;;;;;;;5113252;28;20487;-60
2023/12/28 04:08:07;;;;;;;4.63;2.42;;;;;;;;;;5112560;28;20057;-60
2023/12/28 04:10:32;;;;;;;4.65;2.50;;;;;;;;;;5109567;28;20024;-60
2023/12/28 04:12:59;;;;;;;4.28;2.50;;;;;;;;;;5112475;28;20032;-60
2023/12/28 04:15:26;;;;;;;4.72;2.65;;;;;;;;;;5092343;28;20390;-60
2023/12/28 04:17:51;;;;;;;5.03;2.50;;;;;;;;;;5112255;28;20032;-60
2023/12/28 04:20:17;;;;;;;5.68;2.70;;;;;;;;;;5111225;28;20085;-60
2023/12/28 04:22:43;;;;;;;4.38;2.53;;;;;;;;;;5113864;28;20054;-60
2023/12/28 04:25:09;;;;;;;4.97;2.75;;;;;;;;;;5110370;28;20036;-60
2023/12/28 04:27:35;;;;;;;4.57;2.65;;;;;;;;;;5109815;28;20031;-60
2023/12/28 04:30:01;;;;;;;5.88;2.67;;;;;;;;;;5112317;28;20385;-60
2023/12/28 04:32:27;;;;;;;4.68;1.85;;;;;;;;;;5106639;28;20061;-60
2023/12/28 04:34:53;;;;;;;6.40;2.50;;;;;;;;;;5113288;28;20085;-60
2023/12/28 04:37:19;;;;;;;5.80;2.40;;;;;;;;;;5110996;28;20035;-60
2023/12/28 04:39:45;;;;;;;3.92;1.80;;;;;;;;;;5111554;28;20043;-60
2023/12/28 04:42:10;;;;;;;4.53;2.03;;;;;;;;;;5106703;28;20472;-60
2023/12/28 04:44:38;;;;;;;4.20;2.40;;;;;;;;;;5112454;28;20027;-60
2023/12/28 04:47:04;;;;;;;2.63;1.92;;;;;;;;;;5109858;28;20541;-60
2023/12/28 04:49:30;;;;;;;4.93;2.30;;;;;;;;;;5095633;28;20035;-60
2023/12/28 04:51:56;;;;;;;6.53;2.40;;;;;;;;;;5111989;28;20028;-60
2023/12/28 04:54:21;;;;;;;4.65;2.55;;;;;;;;;;5109939;28;20451;-60
2023/12/28 04:56:47;;;;;;;4.18;2.40;;;;;;;;;;5111273;28;20111;-61
2023/12/28 04:59:12;;;;;;;2.60;1.67;;;;;;;;;;5110397;28;20031;-60
2023/12/28 05:01:41;;;;;;;5.82;2.50;;;;;;;;;;5108599;28;20573;-60
2023/12/28 05:04:07;;;;;;;4.22;1.80;;;;;;;;;;5101331;28;20392;-60
2023/12/28 05:06:32;;;;;;;6.70;2.50;;;;;;;;;;5110194;28;20024;-61
2023/12/28 05:08:57;;;;;;;3.63;1.88;;;;;;;;;;5112649;28;20028;-60
2023/12/28 05:11:23;;;;;;;5.30;2.28;;;;;;;;;;5108780;28;20031;-60
2023/12/28 05:13:48;;;;;;;5.20;2.28;;;;;;;;;;5110410;28;20028;-60
2023/12/28 05:16:13;;;;;;;4.40;2.22;;;;;;;;;;5098057;28;20028;-60
2023/12/28 05:18:39;;;;;;;3.97;1.98;;;;;;;;;;5110821;28;20067;-60
2023/12/28 05:21:04;;;;;;;5.40;2.40;;;;;;;;;;5110952;28;20054;-60
2023/12/28 05:23:30;;;;;;;4.25;1.90;;;;;;;;;;5109881;28;20437;-60
2023/12/28 05:25:55;;;;;;;6.10;2.28;;;;;;;;;;5112585;28;20110;-60
2023/12/28 05:28:20;;;;;;;4.05;2.40;;;;;;;;;;5104494;28;20133;-60
2023/12/28 05:30:46;;;;;;;3.88;2.20;;;;;;;;;;5098453;28;20102;-60
2023/12/28 05:33:11;;;;;;;6.45;2.50;;;;;;;;;;5110760;28;20043;-60
2023/12/28 05:35:37;;;;;;;4.30;2.03;;;;;;;;;;5110224;28;20189;-59
2023/12/28 05:38:02;;;;;;;3.40;1.90;;;;;;;;;;5110722;28;20456;-60
2023/12/28 05:40:27;;;;;;;5.15;2.10;;;;;;;;;;5110867;28;20027;-60
2023/12/28 05:42:53;;;;;;;4.53;1.90;;;;;;;;;;5097147;28;20387;-60
2023/12/28 05:45:18;;;;;;;3.67;1.80;;;;;;;;;;5111932;28;20373;-60
2023/12/28 05:47:44;;;;;;;4.22;1.98;;;;;;;;;;5109099;28;20079;-60
2023/12/28 05:50:09;;;;;;;5.53;2.00;;;;;;;;;;5110493;28;20392;-60
2023/12/28 05:52:35;;;;;;;3.42;1.73;;;;;;;;;;5108026;28;20035;-60
2023/12/28 05:55:00;;;;;;;4.85;1.80;;;;;;;;;;5110469;28;20047;-60
2023/12/28 05:57:29;;;;;;;4.78;2.00;;;;;;;;;;5109990;28;20039;-60
2023/12/28 05:59:55;;;;;;;4.40;2.00;;;;;;;;;;5110715;28;20051;-60
2023/12/28 06:02:20;;;;;;;8.43;2.33;;;;;;;;;;5103696;28;20031;-60
2023/12/28 06:04:46;;;;;;;2.97;1.60;;;;;;;;;;5110291;28;20031;-60
2023/12/28 06:07:11;;;;;;;3.80;2.00;;;;;;;;;;5093928;28;20024;-60
2023/12/28 06:09:38;;;;;;;4.25;2.05;;;;;;;;;;5111186;28;20823;-60
2023/12/28 06:12:04;;;;;;;5.50;2.13;;;;;;;;;;5112041;28;20097;-60
2023/12/28 06:14:30;;;;;;;5.55;2.00;;;;;;;;;;5098614;28;20468;-60
2023/12/28 06:16:55;;;;;;;5.18;2.22;;;;;;;;;;5091737;28;20028;-60
2023/12/28 06:19:21;;;;;;;7.35;1.73;;;;;;;;;;5106279;28;20048;-60
2023/12/28 06:21:48;;;;;;;5.35;2.00;;;;;;;;;;5089908;28;20048;-60
2023/12/28 06:24:13;;;;;;;4.70;2.40;;;;;;;;;;5085763;28;20033;-60
2023/12/28 06:26:43;;;;;;;4.80;2.05;;;;;;;;;;5094710;28;20036;-60
2023/12/28 06:29:09;;;;;;;5.10;2.08;;;;;;;;;;5094899;28;20032;-60
2023/12/28 06:31:36;;;;;;;6.00;2.40;;;;;;;;;;5094532;28;20123;-60
2023/12/28 06:34:05;;;;;;;4.00;2.08;;;;;;;;;;5087378;28;20109;-59
2023/12/28 06:36:31;;;;;;;3.28;1.88;;;;;;;;;;5091130;28;20461;-59
2023/12/28 06:38:57;;;;;;;4.03;1.77;;;;;;;;;;5093851;28;20081;-60
2023/12/28 06:41:23;;;;;;;4.20;2.20;;;;;;;;;;5094494;28;20056;-59
2023/12/28 06:43:49;;;;;;;5.55;1.83;;;;;;;;;;5093994;28;20055;-59
2023/12/28 06:46:15;;;;;;;4.80;1.75;;;;;;;;;;5095247;28;20028;-59
2023/12/28 06:48:40;;;;;;;4.85;2.00;;;;;;;;;;5093594;28;20035;-60
2023/12/28 06:51:06;;;;;;;6.18;1.90;;;;;;;;;;5095133;28;20024;-59
2023/12/28 06:53:32;;;;;;;6.30;1.88;;;;;;;;;;5093410;28;20040;-60
2023/12/28 06:55:57;;;;;;;3.42;2.00;;;;;;;;;;5091255;28;20396;-59
2023/12/28 06:58:22;;;;;;;4.18;1.75;;;;;;;;;;5094532;28;20028;-59
2023/12/28 07:00:48;;;;;;;7.00;2.17;;;;;;;;;;5093002;28;20106;-59
2023/12/28 07:03:13;;;;;;;6.57;2.10;;;;;;;;;;5086240;28;20054;-59
2023/12/28 07:05:39;;;;;;;4.90;2.10;;;;;;;;;;5091683;28;20492;-60
2023/12/28 07:08:04;;;;;;;6.32;2.20;;;;;;;;;;5093783;28;20567;-60
2023/12/28 07:10:30;;;;;;;5.72;2.20;;;;;;;;;;5092123;28;20024;-59
2023/12/28 07:12:55;;;;;;;5.07;1.90;;;;;;;;;;5093377;28;20430;-60
2023/12/28 07:15:20;;;;;;;3.90;2.30;;;;;;;;;;5091621;28;20042;-59
2023/12/28 07:17:46;;;;;;;4.78;1.83;;;;;;;;;;5090754;28;20369;-58
2023/12/28 07:20:11;;;;;;;4.30;2.10;;;;;;;;;;5092933;28;20070;-59
2023/12/28 07:22:37;;;;;;;5.88;2.00;;;;;;;;;;5107970;28;20460;-59
2023/12/28 07:25:05;;;;;;;3.30;1.75;;;;;;;;;;5092953;28;20067;-61
2023/12/28 07:27:31;;;;;;;6.05;1.80;;;;;;;;;;5113785;28;20027;-59
2023/12/28 07:29:57;;;;;;;5.72;1.95;;;;;;;;;;5112909;28;20030;-59
2023/12/28 07:32:25;;;;;;;4.78;1.98;;;;;;;;;;5111864;28;20023;-60
2023/12/28 07:34:53;;;;;;;4.45;1.65;;;;;;;;;;5108379;28;20071;-61
2023/12/28 07:37:19;;;;;;;9.63;2.10;;;;;;;;;;5113266;28;20050;-61
2023/12/28 07:39:44;;;;;;;3.63;1.90;;;;;;;;;;5113745;28;20644;-60
2023/12/28 07:42:10;;;;;;;8.40;2.20;;;;;;;;;;5087520;28;20063;-61
2023/12/28 07:44:35;;;;;;;6.35;2.00;;;;;;;;;;5110737;28;20020;-61
2023/12/28 07:47:01;;;;;;;4.82;2.00;;;;;;;;;;5110690;28;20107;-61
2023/12/28 07:49:27;;;;;;;5.72;2.10;;;;;;;;;;5112399;28;20039;-60
2023/12/28 07:51:52;;;;;;;7.05;2.10;;;;;;;;;;5112810;28;20031;-60
2023/12/28 07:54:18;;;;;;;7.50;2.30;;;;;;;;;;5109066;28;20076;-59
2023/12/28 07:56:43;;;;;;;3.55;1.88;;;;;;;;;;5097769;28;20042;-59
2023/12/28 07:59:09;;;;;;;5.53;2.00;;;;;;;;;;5113034;28;20506;-60
2023/12/28 08:01:35;;;;;;;5.60;2.05;;;;;;;;;;5109115;28;20088;-59
2023/12/28 08:04:01;;;;;;;6.70;1.90;;;;;;;;;;5113460;28;20468;-60
2023/12/28 08:06:29;;;;;;;8.10;1.90;;;;;;;;;;5093156;28;20028;-60
2023/12/28 08:08:54;;;;;;;8.35;2.00;;;;;;;;;;5093522;28;20028;-59
2023/12/28 08:11:20;;;;;;;7.88;1.98;;;;;;;;;;5093472;28;20446;-59
2023/12/28 08:13:45;;;;;;;5.22;1.73;;;;;;;;;;5092460;28;20028;-59
2023/12/28 08:16:11;;;;;;;9.75;1.80;;;;;;;;;;5097581;28;20035;-59
2023/12/28 08:18:36;;;;;;;3.88;1.90;;;;;;;;;;5096319;28;20024;-59
2023/12/28 08:21:02;;;;;;;10.43;2.42;;;;;;;;;;5093166;28;20117;-59
2023/12/28 08:23:27;;;;;;;6.53;1.67;;;;;;;;;;5094764;28;20111;-58
2023/12/28 08:25:52;;;;;;;3.80;1.42;;;;;;;;;;5112555;28;20038;-62
2023/12/28 08:28:18;;;;;;;7.18;2.00;;;;;;;;;;5106413;28;20062;-62
2023/12/28 08:30:43;;;;;;;5.13;1.73;;;;;;;;;;5092401;28;20040;-61
2023/12/28 08:33:08;;;;;;;6.40;1.75;;;;;;;;;;5092735;28;20069;-62
2023/12/28 08:35:34;;;;;;;7.45;1.60;;;;;;;;;;5093475;28;20507;-62
2023/12/28 08:37:59;;;;;;;5.82;1.90;;;;;;;;;;5093525;28;20422;-62
2023/12/28 08:40:25;;;;;;;6.20;1.90;;;;;;;;;;5093971;28;20036;-61
2023/12/28 08:42:51;;;;;;;10.30;1.95;;;;;;;;;;5112393;28;20024;-62
2023/12/28 08:45:16;;;;;;;7.47;2.05;;;;;;;;;;5112594;28;20028;-62
2023/12/28 08:47:41;;;;;;;7.22;1.98;;;;;;;;;;5112135;28;20028;-62
2023/12/28 08:50:07;;;;;;;10.20;2.00;;;;;;;;;;5112715;28;20386;-62
2023/12/28 08:52:32;;;;;;;6.93;1.77;;;;;;;;;;5112051;28;20039;-64
2023/12/28 08:54:59;;;;;;;6.68;1.95;;;;;;;;;;5112004;28;20028;-61
2023/12/28 08:57:24;;;;;;;6.53;2.08;;;;;;;;;;5113175;28;20032;-62
2023/12/28 08:59:50;;;;;;;8.32;1.92;;;;;;;;;;5112243;28;20126;-62
2023/12/28 09:02:15;;;;;;;8.57;1.75;;;;;;;;;;5112734;28;20396;-62
2023/12/28 09:04:41;;;;;;;7.43;1.83;;;;;;;;;;5103557;28;20077;-62
2023/12/28 09:07:06;;;;;;;8.23;1.90;;;;;;;;;;5092183;28;20031;-62
2023/12/28 09:09:31;;;;;;;7.18;1.75;;;;;;;;;;5108429;28;20028;-62
2023/12/28 09:11:57;;;;;;;6.80;1.80;;;;;;;;;;5112104;28;20062;-62
2023/12/28 09:14:22;;;;;;;9.52;1.75;;;;;;;;;;5112459;28;20027;-62
2023/12/28 09:16:47;;;;;;;7.93;1.90;;;;;;;;;;5111283;28;20043;-62
2023/12/28 09:19:14;;;;;;;6.03;1.80;;;;;;;;;;5079879;28;20032;-62
2023/12/28 09:21:40;;;;;;;9.65;2.10;;;;;;;;;;5073072;28;20450;-62
2023/12/28 09:24:06;;;;;;;8.55;1.98;;;;;;;;;;5092648;28;20119;-62
2023/12/28 09:26:32;;;;;;;7.68;1.98;;;;;;;;;;5107576;28;20130;-60
2023/12/28 09:28:58;;;;;;;5.70;1.83;;;;;;;;;;5110984;28;20031;-62
2023/12/28 09:31:23;;;;;;;6.30;2.03;;;;;;;;;;5112226;28;20035;-63
2023/12/28 09:33:49;;;;;;;7.10;1.95;;;;;;;;;;5091708;28;20576;-62
2023/12/28 09:36:15;;;;;;;8.30;1.65;;;;;;;;;;5099017;28;20032;-62
2023/12/28 09:38:40;;;;;;;3.70;1.40;;;;;;;;;;5110725;28;20425;-62
2023/12/28 09:41:16;;;;;;;7.80;2.08;;;;;;;;;;5112160;28;20456;-62
2023/12/28 09:43:58;;;;;;;3.83;1.40;;;;;;;;;;5110690;28;20032;-61
2023/12/28 09:46:26;;;;;;;6.70;1.70;;;;;;;;;;5111705;28;20031;-62
2023/12/28 09:48:53;;;;;;;9.95;2.20;;;;;;;;;;5110956;28;20028;-62
2023/12/28 09:51:19;;;;;;;8.00;2.35;;;;;;;;;;5112039;28;20036;-62
2023/12/28 09:53:45;;;;;;;6.55;1.63;;;;;;;;;;5111306;28;20023;-62
2023/12/28 09:56:12;;;;;;;7.53;2.00;;;;;;;;;;5089979;28;20030;-62
2023/12/28 09:58:40;;;;;;;7.22;1.80;;;;;;;;;;5112511;28;20476;-61
2023/12/28 10:01:07;;;;;;;6.10;1.77;;;;;;;;;;5116285;28;20236;-62
2023/12/28 10:03:33;;;;;;;6.10;2.20;;;;;;;;;;5097205;28;20027;-61
2023/12/28 10:05:58;;;;;;;6.57;1.80;;;;;;;;;;5096096;28;20028;-64
2023/12/28 10:08:24;;;;;;;5.43;1.50;;;;;;;;;;5115958;28;20106;-63
2023/12/28 10:10:54;;;;;;;5.07;1.92;;;;;;;;;;5114839;28;20031;-62
2023/12/28 10:13:20;;;;;;;5.55;1.83;;;;;;;;;;5094673;28;20036;-62
2023/12/28 10:15:45;;;;;;;6.65;1.95;;;;;;;;;;5114674;28;20034;-60
2023/12/28 10:18:11;;;;;;;6.38;1.67;;;;;;;;;;5114650;28;20031;-61
2023/12/28 10:20:36;;;;;;;6.32;2.00;;;;;;;;;;5114127;28;20108;-60
2023/12/28 10:23:02;;;;;;;5.72;1.50;;;;;;;;;;5115711;28;20039;-63
2023/12/28 10:25:28;;;;;;;8.18;1.90;;;;;;;;;;5114959;28;20492;-61
2023/12/28 10:27:54;;;;;;;9.35;1.92;;;;;;;;;;5096108;28;20467;-63
2023/12/28 10:30:22;;;;;;;4.93;1.42;;;;;;;;;;5115979;28;20110;-62
2023/12/28 10:32:48;;;;;;;5.43;1.70;;;;;;;;;;5114284;28;20043;-62
2023/12/28 10:35:14;;;;;;;10.02;1.70;;;;;;;;;;5113919;28;20032;-64
2023/12/28 10:37:43;;;;;;;7.28;2.13;;;;;;;;;;5115086;28;20375;-60
2023/12/28 10:40:17;;;;;;;4.53;1.77;;;;;;;;;;5115666;28;20467;-62
2023/12/28 10:42:56;;;;;;;9.30;2.45;;;;;;;;;;5114097;28;20102;-61
2023/12/28 10:45:25;;;;;;;9.82;1.83;;;;;;;;;;5114521;28;20073;-62
2023/12/28 10:48:15;;;;;;;6.55;1.73;;;;;;;;;;5114438;28;20055;-63
2023/12/28 10:50:42;;;;;;;8.57;2.30;;;;;;;;;;5101572;28;20492;-60
2023/12/28 10:53:16;;;;;;;9.80;1.90;;;;;;;;;;5115192;28;20119;-61
2023/12/28 10:56:04;;;;;;;5.90;2.00;;;;;;;;;;5113589;28;20035;-61
2023/12/28 10:59:13;;;;;;;9.88;2.13;;;;;;;;;;5112030;28;20039;-60
2023/12/28 11:01:41;;;;;;;7.25;1.80;;;;;;;;;;5099999;28;20027;-63
2023/12/28 11:04:09;;;;;;;7.15;2.10;;;;;;;;;;5114064;28;20039;-62
2023/12/28 11:06:35;;;;;;;5.18;1.77;;;;;;;;;;5106266;28;20055;-64
2023/12/28 11:09:01;;;;;;;3.83;1.58;;;;;;;;;;5098005;28;20465;-64
2023/12/28 11:11:27;;;;;;;8.05;1.67;;;;;;;;;;5105144;28;20046;-61
2023/12/28 11:13:55;;;;;;;5.70;1.55;;;;;;;;;;5098506;28;20117;-61
2023/12/28 11:16:22;;;;;;;9.02;2.30;;;;;;;;;;5108818;28;20031;-62
2023/12/28 11:18:48;;;;;;;10.80;2.00;;;;;;;;;;5113688;28;20103;-63
2023/12/28 11:21:15;;;;;;;4.38;1.77;;;;;;;;;;5114512;28;20414;-61
2023/12/28 11:23:41;;;;;;;5.22;1.90;;;;;;;;;;5114341;27;20027;-62
2023/12/28 11:26:20;;;;;;;8.52;1.55;;;;;;;;;;5108965;28;20542;-62
2023/12/28 11:28:46;;;;;;;7.43;1.75;;;;;;;;;;5104801;28;20027;-63
2023/12/28 11:31:14;;;;;;;9.25;2.13;;;;;;;;;;5113703;28;20024;-63
2023/12/28 11:33:52;;;;;;;7.82;1.80;;;;;;;;;;5113402;28;20031;-59
2023/12/28 11:36:32;;;;;;;3.25;1.52;;;;;;;;;;5104109;28;20036;-64
2023/12/28 11:39:02;;;;;;;7.43;1.90;;;;;;;;;;5110785;28;20598;-63
2023/12/28 11:41:30;;;;;;;6.07;1.70;;;;;;;;;;5113336;28;20035;-63
2023/12/28 11:43:55;;;;;;;8.60;1.63;;;;;;;;;;5113110;28;20907;-63
2023/12/28 11:46:22;;;;;;;5.47;1.75;;;;;;;;;;5114468;28;20500;-63
2023/12/28 11:48:47;;;;;;;6.53;1.70;;;;;;;;;;5112837;28;20055;-62
2023/12/28 11:51:13;;;;;;;8.23;2.10;;;;;;;;;;5106473;28;20063;-63
2023/12/28 11:53:39;;;;;;;6.47;1.40;;;;;;;;;;5106740;28;20034;-62
2023/12/28 11:56:09;;;;;;;4.13;1.88;;;;;;;;;;5112038;28;20028;-62
2023/12/28 11:58:35;;;;;;;7.85;2.13;;;;;;;;;;5095236;28;20039;-64
2023/12/28 12:01:03;;;;;;;5.15;1.30;;;;;;;;;;5102809;28;20046;-63
2023/12/28 12:03:29;;;;;;;6.53;1.80;;;;;;;;;;5097302;28;20024;-63
2023/12/28 12:05:57;;;;;;;6.25;1.80;;;;;;;;;;5095752;28;20084;-63
2023/12/28 12:08:24;;;;;;;3.80;1.35;;;;;;;;;;5103590;28;20019;-63
2023/12/28 12:11:00;;;;;;;7.88;2.17;;;;;;;;;;5100154;28;20130;-64
2023/12/28 12:13:27;;;;;;;5.78;1.58;;;;;;;;;;5102921;28;20039;-64
2023/12/28 12:15:52;;;;;;;4.82;1.77;;;;;;;;;;5104628;28;20080;-62
2023/12/28 12:18:18;;;;;;;3.08;1.48;;;;;;;;;;5106484;28;20031;-62
2023/12/28 12:20:44;;;;;;;6.63;1.60;;;;;;;;;;5099032;28;20099;-62
2023/12/28 12:23:10;;;;;;;6.40;1.83;;;;;;;;;;5105135;28;20032;-62
2023/12/28 12:25:36;;;;;;;6.90;1.90;;;;;;;;;;5099255;28;20028;-62
2023/12/28 12:28:01;;;;;;;4.28;1.48;;;;;;;;;;5080890;28;20032;-62
2023/12/28 12:30:27;;;;;;;4.53;1.60;;;;;;;;;;5103845;28;20484;-62
2023/12/28 12:32:52;;;;;;;8.27;1.65;;;;;;;;;;5101728;28;20043;-63
2023/12/28 12:35:21;;;;;;;6.63;1.77;;;;;;;;;;5105089;28;20020;-62
2023/12/28 12:37:49;;;;;;;7.30;1.50;;;;;;;;;;5112133;28;20036;-63
2023/12/28 12:40:15;;;;;;;6.88;1.85;;;;;;;;;;5106813;28;20036;-63
2023/12/28 12:42:42;;;;;;;6.15;1.50;;;;;;;;;;5111034;28;20118;-62
2023/12/28 12:45:08;;;;;;;5.10;1.63;;;;;;;;;;5103564;28;20028;-63
2023/12/28 12:47:34;;;;;;;9.32;2.05;;;;;;;;;;5101442;28;20031;-63
2023/12/28 12:50:00;;;;;;;4.63;2.08;;;;;;;;;;5106749;28;20613;-63
2023/12/28 12:52:25;;;;;;;4.10;1.65;;;;;;;;;;5101186;28;20064;-63
2023/12/28 12:54:56;;;;;;;5.78;1.80;;;;;;;;;;5095822;28;20024;-63
2023/12/28 12:57:22;;;;;;;;;;;;;;;;;;5102958;28;20144;-62
2023/12/28 12:59:50;;;;;;;7.43;2.25;;;;;;;;;;5092445;28;20020;-63
2023/12/28 13:02:16;;;;;;;7.60;1.98;;;;;;;;;;5111033;28;20053;-62
2023/12/28 13:04:42;;;;;;;3.67;1.30;;;;;;;;;;5095522;28;20107;-61
2023/12/28 13:07:08;;;;;;;9.13;1.80;;;;;;;;;;5104106;28;20433;-62
2023/12/28 13:09:34;;;;;;;7.32;1.90;;;;;;;;;;5111070;28;20031;-62
2023/12/28 13:12:00;;;;;;;4.97;1.52;;;;;;;;;;5111147;28;20032;-64
2023/12/28 13:14:25;;;;;;;8.52;1.90;;;;;;;;;;5110617;28;20024;-63
2023/12/28 13:16:54;;;;;;;6.60;1.73;;;;;;;;;;5111439;28;20447;-63
2023/12/28 13:19:20;;;;;;;9.85;2.10;;;;;;;;;;5112073;28;20476;-63
2023/12/28 13:21:45;;;;;;;6.22;1.80;;;;;;;;;;5109742;28;20088;-62
2023/12/28 13:24:14;;;;;;;5.82;1.58;;;;;;;;;;5101495;28;20077;-64
2023/12/28 13:26:39;;;;;;;7.75;2.03;;;;;;;;;;5091284;28;20027;-63
2023/12/28 13:29:04;;;;;;;4.43;1.80;;;;;;;;;;5078597;28;20028;-63
2023/12/28 13:31:30;;;;;;;5.47;1.65;;;;;;;;;;5112159;28;20491;-64
2023/12/28 13:33:56;;;;;;;9.88;1.95;;;;;;;;;;5109055;28;20502;-63
2023/12/28 13:36:21;;;;;;;5.55;1.90;;;;;;;;;;5111919;28;20063;-64
2023/12/28 13:38:47;;;;;;;11.90;2.25;;;;;;;;;;5108449;28;20031;-63
2023/12/28 13:41:13;;;;;;;5.85;1.55;;;;;;;;;;5106941;28;20476;-63
2023/12/28 13:43:38;;;;;;;8.35;1.80;;;;;;;;;;5111751;28;20033;-64
2023/12/28 13:46:04;;;;;;;4.15;1.70;;;;;;;;;;5110791;28;20609;-63
2023/12/28 13:48:30;;;;;;;4.90;1.30;;;;;;;;;;5111005;28;20031;-63
2023/12/28 13:50:55;;;;;;;7.82;1.98;;;;;;;;;;5111042;28;20032;-63
2023/12/28 13:53:21;;;;;;;6.78;1.67;;;;;;;;;;5111794;28;20027;-62
2023/12/28 13:55:46;;;;;;;6.78;2.13;;;;;;;;;;5109694;28;20546;-61
2023/12/28 13:58:12;;;;;;;5.57;1.63;;;;;;;;;;5109947;28;20036;-64
2023/12/28 14:00:37;;;;;;;5.03;1.80;;;;;;;;;;5111636;28;20508;-63
2023/12/28 14:03:03;;;;;;;7.20;1.80;;;;;;;;;;5100462;28;20036;-62
2023/12/28 14:05:28;;;;;;;6.38;1.70;;;;;;;;;;5109340;28;20114;-63
2023/12/28 14:07:56;;;;;;;8.18;1.77;;;;;;;;;;5110040;28;20042;-62
2023/12/28 14:10:21;;;;;;;10.15;1.90;;;;;;;;;;5110776;28;20114;-62
2023/12/28 14:12:46;;;;;;;8.10;1.70;;;;;;;;;;5110919;28;20494;-60
2023/12/28 14:15:15;;;;;;;6.15;1.50;;;;;;;;;;5110699;28;20367;-63
2023/12/28 14:17:40;;;;;;;8.77;1.73;;;;;;;;;;5091616;28;20028;-62
2023/12/28 14:20:08;;;;;;;6.47;1.70;;;;;;;;;;5072957;28;20031;-63
2023/12/28 14:22:34;;;;;;;7.40;1.95;;;;;;;;;;5092113;28;20131;-62
2023/12/28 14:24:59;;;;;;;4.50;1.60;;;;;;;;;;5102834;28;20440;-63
2023/12/28 14:27:25;;;;;;;5.38;1.55;;;;;;;;;;5091180;28;20059;-63
2023/12/28 14:29:51;;;;;;;8.07;2.15;;;;;;;;;;5099611;28;20035;-61
2023/12/28 14:32:16;;;;;;;6.53;1.75;;;;;;;;;;5100818;28;20032;-62
2023/12/28 14:34:42;;;;;;;7.20;2.20;;;;;;;;;;5090911;28;20032;-62
2023/12/28 14:37:07;;;;;;;6.78;1.80;;;;;;;;;;5089871;28;20035;-63
2023/12/28 14:39:33;;;;;;;6.70;1.90;;;;;;;;;;5095037;28;20034;-62